TimePST,TemperatureF,Dew PointF,Humidity,Sea Level PressureIn,VisibilityMPH,Wind Direction,Wind SpeedMPH,Gust SpeedMPH,PrecipitationIn,Events,Conditions,WindDirDegrees,DateUTC
12:53 AM,30.0,26.1,85,30.42,10.0,SSW,3.5,-,N/A,,Clear,200,2012-11-05 08:53:00
1:53 AM,30.0,26.1,85,30.41,10.0,Calm,Calm,-,N/A,,Clear,0,2012-11-05 09:53:00
2:53 AM,28.0,25.0,88,30.40,10.0,SSW,3.5,-,N/A,,Clear,200,2012-11-05 10:53:00
3:53 AM,28.0,25.0,88,30.42,10.0,South,3.5,-,N/A,,Clear,180,2012-11-05 11:53:00
4:53 AM,28.9,25.0,85,30.43,10.0,South,3.5,-,N/A,,Clear,190,2012-11-05 12:53:00
5:53 AM,28.0,25.0,88,30.46,10.0,South,3.5,-,N/A,,Clear,190,2012-11-05 13:53:00
6:53 AM,28.0,25.0,88,30.48,10.0,South,3.5,-,N/A,,Clear,180,2012-11-05 14:53:00
7:53 AM,32.0,28.9,88,30.50,10.0,SSW,3.5,-,N/A,,Clear,200,2012-11-05 15:53:00
8:53 AM,43.0,32.0,65,30.45,10.0,Calm,Calm,-,N/A,,Clear,0,2012-11-05 16:53:00
9:53 AM,55.0,34.0,45,30.41,10.0,East,3.5,-,N/A,,Clear,90,2012-11-05 17:53:00
10:53 AM,59.0,33.1,38,30.39,10.0,Calm,Calm,-,N/A,,Clear,0,2012-11-05 18:53:00
11:53 AM,63.0,32.0,31,30.36,10.0,East,3.5,-,N/A,,Clear,90,2012-11-05 19:53:00
12:53 PM,64.9,33.1,31,30.32,10.0,Variable,5.8,-,N/A,,Clear,0,2012-11-05 20:53:00
1:53 PM,63.0,33.1,33,30.31,10.0,Variable,3.5,-,N/A,,Clear,0,2012-11-05 21:53:00
2:53 PM,63.0,30.9,30,30.32,10.0,NNE,4.6,-,N/A,,Clear,30,2012-11-05 22:53:00
3:53 PM,55.0,36.0,49,30.34,10.0,Calm,Calm,-,N/A,,Clear,0,2012-11-05 23:53:00
4:53 PM,50.0,35.1,57,30.35,10.0,Calm,Calm,-,N/A,,Clear,0,2012-11-06 00:53:00
5:53 PM,45.0,34.0,65,30.38,5.0,Calm,Calm,-,0.00,Rain,Light Rain,0,2012-11-06 01:53:00
6:23 PM,42.8,35.6,76,30.40,4.0,Calm,Calm,-,0.00,,Haze,0,2012-11-06 02:23:00
6:30 PM,42.8,33.8,70,30.40,9.0,Calm,Calm,-,0.00,,Clear,0,2012-11-06 02:30:00
6:53 PM,41.0,35.1,79,30.40,10.0,SSW,3.5,-,0.00,,Clear,200,2012-11-06 02:53:00
7:53 PM,37.9,33.1,83,30.40,9.0,SSW,4.6,-,0.00,,Clear,200,2012-11-06 03:53:00
8:53 PM,35.1,30.9,85,30.38,10.0,Calm,Calm,-,N/A,,Clear,0,2012-11-06 04:53:00
9:53 PM,33.1,28.9,85,30.35,10.0,Calm,Calm,-,N/A,,Clear,0,2012-11-06 05:53:00
10:53 PM,30.9,28.0,89,30.33,10.0,Calm,Calm,-,N/A,,Clear,0,2012-11-06 06:53:00
11:53 PM,30.0,27.0,88,30.31,10.0,South,3.5,-,N/A,,Clear,180,2012-11-06 07:53:00